Flight Track Log - Related Links

Times and Time Zones

All times are in EDT time to prevent confusion due to time zone crossing. See the EJA933 flight status page for this flight to view local times or setup timezone preferences in your user account.

Time Position Orientation Groundspeed Altitude Reporting Facility
EDT Latitude Longitude Course Direction KTS MPH feet Rate Location/Type
Wed 02:09:23 PM 33.6000 -117.9000 196° South 191 220 4,800  Level Southern California TRACON
Wed 02:10:23 PM 33.5500 -117.9167 196° South 204 235 8,900 3,350 Climbing Southern California TRACON
Wed 02:11:23 PM 33.5000 -117.9500 209° Southwest 265 305 11,500 2,146 Climbing Southern California TRACON
Wed 02:12:40 PM 33.4589 -118.0628 246° West 306 352 13,800 1,813 Climbing Los Angeles Center
Wed 02:13:42 PM 33.4589 -118.1700 270° West 333 383 15,700 1,887 Climbing Los Angeles Center
Wed 02:14:44 PM 33.5214 -118.2686 307° West 366 421 17,700 1,984 Climbing Los Angeles Center
Wed 02:15:46 PM 33.5867 -118.3672 308° West 372 428 19,800 1,984 Climbing Los Angeles Center
Wed 02:16:48 PM 33.6558 -118.4694 309° West 387 445 21,800 1,984 Climbing Los Angeles Center
Wed 02:17:50 PM 33.7250 -118.5739 309° West 395 455 23,900 2,177 Climbing Los Angeles Center
Wed 02:18:52 PM 33.8083 -118.6997 309° West 398 458 26,300 2,129 Climbing Los Angeles Center
Wed 02:19:54 PM 33.8792 -118.8067 309° West 406 467 28,300 1,935 Climbing Los Angeles Center
Wed 02:20:56 PM 33.9506 -118.9164 308° West 415 478 30,300 1,776 Climbing Los Angeles Center
Wed 02:21:59 PM 34.0247 -119.0278 309° West 424 488 32,000 816 Climbing Los Angeles Center
Wed 02:23:01 PM 34.1086 -119.1486 310° West 464 534 32,000  Level Los Angeles Center
Wed 02:24:03 PM 34.2114 -119.2683 316° Northwest 508 585 32,000  Level Los Angeles Center
Wed 02:25:05 PM 34.3392 -119.4186 316° Northwest 531 611 32,000  Level Los Angeles Center
Wed 02:26:07 PM 34.4483 -119.5461 316° Northwest 543 625 32,000  Level Los Angeles Center
Wed 02:27:09 PM 34.5569 -119.6739 316° Northwest 545 627 32,000  Level Los Angeles Center
Wed 02:28:11 PM 34.6669 -119.8039 316° Northwest 544 626 32,000  Level Los Angeles Center
Wed 02:29:14 PM 34.7750 -119.9314 316° Northwest 541 623 32,000  Level Los Angeles Center
Wed 02:30:16 PM 34.8828 -120.0592 316° Northwest 541 623 32,000  Level Los Angeles Center
Wed 02:31:18 PM 34.9892 -120.1861 316° Northwest 536 617 32,000  Level Los Angeles Center
Wed 02:32:20 PM 35.1183 -120.3394 316° Northwest 537 618 32,000  Level Los Angeles Center
Wed 02:33:22 PM 35.2267 -120.4692 316° Northwest 536 617 32,000  Level Los Angeles Center
Wed 02:34:24 PM 35.3478 -120.5900 321° Northwest 547 629 32,000  Level Los Angeles Center
Wed 02:35:26 PM 35.4694 -120.7050 322° Northwest 546 628 32,000  Level Los Angeles Center
Wed 02:36:28 PM 35.5886 -120.8194 322° Northwest 543 625 32,000  Level Los Angeles Center
Wed 02:36:48 PM 35.6358 -120.8664 321° Northwest 543 625 32,000  Level Oakland Center
Wed 02:37:50 PM 35.7547 -120.9814 322° Northwest 543 625 32,000  Level Oakland Center
Wed 02:38:51 PM 35.8725 -121.0986 321° Northwest 542 624 32,000  Level Oakland Center
Wed 02:39:53 PM 35.9914 -121.2125 322° Northwest 541 623 32,000  Level Oakland Center
Wed 02:40:54 PM 36.1081 -121.3281 321° Northwest 537 618 32,000  Level Oakland Center
Wed 02:41:56 PM 36.2250 -121.4428 322° Northwest 536 617 32,000 -732 Level Oakland Center
Wed 02:42:57 PM 36.3450 -121.5464 325° Northwest 526 605 30,500 -2,439 Descending Oakland Center
Wed 02:43:59 PM 36.4703 -121.6361 330° Northwest 517 595 27,000 -3,663 Descending Oakland Center
Wed 02:44:32 PM 36.5500 -121.7000 327° Northwest 462 532 24,700 -3,097 Descending Northern Cal TRACON
Wed 02:45:32 PM 36.6500 -121.7667 332° Northwest 422 486 22,200 -3,100 Descending Northern Cal TRACON
Wed 02:46:32 PM 36.7833 -121.8667 329° Northwest 394 453 18,500 -3,350 Descending Northern Cal TRACON
Wed 02:47:32 PM 36.8667 -121.9500 321° Northwest 416 479 15,500 -2,400 Descending Northern Cal TRACON
Wed 02:48:32 PM 36.9167 -122.0500 302° West 379 436 13,700 -1,684 Descending Northern Cal TRACON
Wed 02:49:26 PM 36.9167 -122.1500 270° West 298 343 12,300 -1,453 Descending Northern Cal TRACON
Wed 02:50:07 PM 36.9308 -122.2031 288° West 290 334 11,400 -1,340 Descending Oakland Center
Wed 02:51:09 PM 36.9747 -122.2731 308° West 275 316 10,000 -683 Descending Oakland Center
Wed 02:52:10 PM 37.0539 -122.3097 340° North 257 296 10,000  Level Oakland Center
Wed 02:53:12 PM 37.1256 -122.3281 348° North 260 299 10,000 -195 Level Oakland Center
Wed 02:54:13 PM 37.1964 -122.3428 351° North 258 297 9,600 -590 Descending Oakland Center
Wed 02:55:14 PM 37.2600 -122.3653 344° North 246 283 8,800 -878 Descending Oakland Center
Wed 02:56:16 PM 37.2931 -122.4314 302° West 228 262 7,800 -1,122 Descending Oakland Center
Wed 02:57:17 PM 37.3572 -122.4133 13° North 239 275 6,500 -878 Descending Oakland Center
Wed 02:58:19 PM 37.3700 -122.3283 79° East 251 289 6,000 -244 Descending Oakland Center
Wed 02:59:20 PM 37.3747 -122.2433 86° East 248 285 6,000 -49 Level Oakland Center
Wed 03:00:22 PM 37.3969 -122.1550 72° East 243 280 5,900 -634 Descending Oakland Center
Wed 03:01:23 PM 37.4572 -122.1558 359° North 219 252 4,700 -976 Descending Oakland Center
Wed 03:02:25 PM 37.5036 -122.1753 342° North 190 219 3,900 -878 Descending Oakland Center
Wed 03:03:26 PM 37.5328 -122.2094 317° Northwest 160 184 2,900 -689 Descending Oakland Center
Wed 03:04:27 PM 37.5572 -122.2453 311° West 144 166 2,500 -732 Descending Oakland Center
Wed 03:05:29 PM 37.5797 -122.2869 304° West 142 163 1,400 -927 Descending Oakland Center
Wed 03:06:30 PM 37.5983 -122.3297 299° West 141 162 600 -488 Descending Oakland Center
Wed 03:07:32 PM 37.6197 -122.3797 298° West 140 161 400 -194 Descending Oakland Center

Login

Don't have an account? Register now (free) for customized features, flight alerts, and more!